sensor_id;sensor_type;location;lat;lon;timestamp;pressure;altitude;pressure_sealevel;temperature;humidity
5988;BME280;3021;51.000;6.980;2023-04-24T00:02:09;67708.19;;;12.65;100.00
5988;BME280;3021;51.000;6.980;2023-04-24T00:04:39;67706.44;;;12.63;100.00
5988;BME280;3021;51.000;6.980;2023-04-24T00:07:06;67704.00;;;12.58;100.00
5988;BME280;3021;51.000;6.980;2023-04-24T00:09:32;67702.41;;;12.59;100.00
5988;BME280;3021;51.000;6.980;2023-04-24T00:11:57;67698.94;;;12.56;100.00
5988;BME280;3021;51.000;6.980;2023-04-24T00:14:23;67704.00;;;12.58;100.00
5988;BME280;3021;51.000;6.980;2023-04-24T00:16:48;67704.59;;;12.59;100.00
5988;BME280;3021;51.000;6.980;2023-04-24T00:19:13;67706.31;;;12.60;100.00
5988;BME280;3021;51.000;6.980;2023-04-24T00:21:39;67709.19;;;12.63;100.00
5988;BME280;3021;51.000;6.980;2023-04-24T00:24:05;67713.81;;;12.67;100.00
5988;BME280;3021;51.000;6.980;2023-04-24T00:26:30;67713.81;;;12.67;100.00
5988;BME280;3021;51.000;6.980;2023-04-24T00:28:55;67705.31;;;12.62;100.00
5988;BME280;3021;51.000;6.980;2023-04-24T00:31:21;67697.63;;;12.53;100.00
5988;BME280;3021;51.000;6.980;2023-04-24T00:33:46;67687.22;;;12.43;100.00
5988;BME280;3021;51.000;6.980;2023-04-24T00:36:11;67693.13;;;12.51;100.00
5988;BME280;3021;51.000;6.980;2023-04-24T00:38:37;67701.69;;;12.56;100.00
5988;BME280;3021;51.000;6.980;2023-04-24T00:41:02;67699.50;;;12.57;100.00
5988;BME280;3021;51.000;6.980;2023-04-24T00:43:27;67700.06;;;12.57;100.00
5988;BME280;3021;51.000;6.980;2023-04-24T00:45:53;67698.94;;;12.56;100.00
5988;BME280;3021;51.000;6.980;2023-04-24T00:48:20;67695.31;;;12.51;100.00
5988;BME280;3021;51.000;6.980;2023-04-24T00:50:45;67698.78;;;12.54;100.00
5988;BME280;3021;51.000;6.980;2023-04-24T00:53:10;67690.25;;;12.49;100.00
5988;BME280;3021;51.000;6.980;2023-04-24T00:55:36;67680.41;;;12.40;100.00
5988;BME280;3021;51.000;6.980;2023-04-24T00:58:02;67688.22;;;12.42;100.00
5988;BME280;3021;51.000;6.980;2023-04-24T01:00:28;67693.00;;;12.49;100.00
5988;BME280;3021;51.000;6.980;2023-04-24T01:02:54;67689.53;;;12.45;100.00
5988;BME280;3021;51.000;6.980;2023-04-24T01:05:20;67684.88;;;12.41;100.00
5988;BME280;3021;51.000;6.980;2023-04-24T01:07:46;67684.88;;;12.41;100.00
5988;BME280;3021;51.000;6.980;2023-04-24T01:10:14;67683.88;;;12.43;100.00
5988;BME280;3021;51.000;6.980;2023-04-24T01:12:40;67678.53;;;12.36;100.00
5988;BME280;3021;51.000;6.980;2023-04-24T01:15:06;67684.75;;;12.39;100.00
5988;BME280;3021;51.000;6.980;2023-04-24T01:17:32;67675.78;;;12.36;100.00
5988;BME280;3021;51.000;6.980;2023-04-24T01:19:59;67676.78;;;12.34;100.00
5988;BME280;3021;51.000;6.980;2023-04-24T01:22:25;67679.09;;;12.36;100.00
5988;BME280;3021;51.000;6.980;2023-04-24T01:24:51;67666.94;;;12.25;100.00
5988;BME280;3021;51.000;6.980;2023-04-24T01:27:17;67656.53;;;12.16;100.00
5988;BME280;3021;51.000;6.980;2023-04-24T01:29:43;67644.53;;;12.08;100.00
5988;BME280;3021;51.000;6.980;2023-04-24T01:32:08;67646.72;;;12.07;100.00
5988;BME280;3021;51.000;6.980;2023-04-24T01:34:34;67649.59;;;12.10;100.00
5988;BME280;3021;51.000;6.980;2023-04-24T01:36:59;67632.25;;;11.95;100.00
5988;BME280;3021;51.000;6.980;2023-04-24T01:39:25;67633.38;;;11.96;100.00
5988;BME280;3021;51.000;6.980;2023-04-24T01:41:53;67617.31;;;11.84;100.00
5988;BME280;3021;51.000;6.980;2023-04-24T01:44:18;67588.25;;;11.55;100.00
5988;BME280;3021;51.000;6.980;2023-04-24T01:46:44;67584.94;;;11.55;100.00
5988;BME280;3021;51.000;6.980;2023-04-24T01:49:10;67584.22;;;11.52;100.00
5988;BME280;3021;51.000;6.980;2023-04-24T01:51:36;67565.84;;;11.38;100.00
5988;BME280;3021;51.000;6.980;2023-04-24T01:54:01;67557.03;;;11.28;100.00
5988;BME280;3021;51.000;6.980;2023-04-24T01:56:28;67544.31;;;11.16;100.00
5988;BME280;3021;51.000;6.980;2023-04-24T01:58:55;67526.53;;;11.03;100.00
5988;BME280;3021;51.000;6.980;2023-04-24T02:01:21;67528.69;;;11.02;100.00
5988;BME280;3021;51.000;6.980;2023-04-24T02:03:48;67521.78;;;10.96;100.00
5988;BME280;3021;51.000;6.980;2023-04-24T02:06:13;67505.59;;;10.82;100.00
5988;BME280;3021;51.000;6.980;2023-04-24T02:08:38;67491.00;;;10.66;100.00
5988;BME280;3021;51.000;6.980;2023-04-24T02:11:04;67480.16;;;10.59;100.00
5988;BME280;3021;51.000;6.980;2023-04-24T02:13:31;67481.16;;;10.58;100.00
5988;BME280;3021;51.000;6.980;2023-04-24T02:15:58;67457.03;;;10.38;100.00
5988;BME280;3021;51.000;6.980;2023-04-24T02:18:23;67452.81;;;10.32;100.00
5988;BME280;3021;51.000;6.980;2023-04-24T02:20:48;67442.56;;;10.26;100.00
5988;BME280;3021;51.000;6.980;2023-04-24T02:23:14;67421.50;;;10.12;100.00
5988;BME280;3021;51.000;6.980;2023-04-24T02:25:40;67429.28;;;10.14;100.00
5988;BME280;3021;51.000;6.980;2023-04-24T02:28:05;67416.56;;;10.02;100.00
5988;BME280;3021;51.000;6.980;2023-04-24T02:30:31;67403.88;;;9.91;100.00
5988;BME280;3021;51.000;6.980;2023-04-24T02:32:56;67392.88;;;9.81;100.00
5988;BME280;3021;51.000;6.980;2023-04-24T02:35:22;67390.75;;;9.82;100.00
5988;BME280;3021;51.000;6.980;2023-04-24T02:37:47;67369.94;;;9.63;100.00
5988;BME280;3021;51.000;6.980;2023-04-24T02:40:12;67367.47;;;9.59;100.00
5988;BME280;3021;51.000;6.980;2023-04-24T02:42:38;67379.47;;;9.67;100.00
5988;BME280;3021;51.000;6.980;2023-04-24T02:45:03;67387.69;;;9.77;100.00
5988;BME280;3021;51.000;6.980;2023-04-24T02:47:30;67383.06;;;9.73;100.00
5988;BME280;3021;51.000;6.980;2023-04-24T02:49:55;67379.75;;;9.72;100.00
5988;BME280;3021;51.000;6.980;2023-04-24T02:52:20;67417.16;;;10.03;100.00
5988;BME280;3021;51.000;6.980;2023-04-24T02:54:46;67423.94;;;10.07;100.00
5988;BME280;3021;51.000;6.980;2023-04-24T02:57:11;67429.28;;;10.14;100.00
5988;BME280;3021;51.000;6.980;2023-04-24T02:59:37;67445.59;;;10.31;100.00
5988;BME280;3021;51.000;6.980;2023-04-24T03:02:02;67452.25;;;10.32;100.00
5988;BME280;3021;51.000;6.980;2023-04-24T03:04:27;67463.22;;;10.42;100.00
5988;BME280;3021;51.000;6.980;2023-04-24T03:06:53;67469.31;;;10.52;100.00
5988;BME280;3021;51.000;6.980;2023-04-24T03:09:22;67462.81;;;10.44;100.00
5988;BME280;3021;51.000;6.980;2023-04-24T03:11:48;67469.75;;;10.50;100.00
5988;BME280;3021;51.000;6.980;2023-04-24T03:14:14;67474.97;;;10.54;100.00
5988;BME280;3021;51.000;6.980;2023-04-24T03:16:40;67480.16;;;10.59;100.00
5988;BME280;3021;51.000;6.980;2023-04-24T03:19:05;67477.25;;;10.57;100.00
5988;BME280;3021;51.000;6.980;2023-04-24T03:21:30;67471.47;;;10.51;100.00
5988;BME280;3021;51.000;6.980;2023-04-24T03:23:56;67470.34;;;10.50;100.00
5988;BME280;3021;51.000;6.980;2023-04-24T03:26:21;67466.84;;;10.47;100.00
5988;BME280;3021;51.000;6.980;2023-04-24T03:28:46;67474.50;;;10.57;100.00
5988;BME280;3021;51.000;6.980;2023-04-24T03:31:12;67474.50;;;10.57;100.00
5988;BME280;3021;51.000;6.980;2023-04-24T03:33:37;67473.19;;;10.53;100.00
5988;BME280;3021;51.000;6.980;2023-04-24T03:36:02;67470.34;;;10.50;100.00
5988;BME280;3021;51.000;6.980;2023-04-24T03:38:28;67458.03;;;10.37;100.00
5988;BME280;3021;51.000;6.980;2023-04-24T03:40:53;67459.91;;;10.41;100.00
5988;BME280;3021;51.000;6.980;2023-04-24T03:43:18;67454.72;;;10.36;100.00
5988;BME280;3021;51.000;6.980;2023-04-24T03:45:44;67455.75;;;10.35;100.00
5988;BME280;3021;51.000;6.980;2023-04-24T03:48:09;67434.47;;;10.18;100.00
5988;BME280;3021;51.000;6.980;2023-04-24T03:50:34;67426.84;;;10.09;100.00
5988;BME280;3021;51.000;6.980;2023-04-24T03:53:00;67425.25;;;10.10;100.00
5988;BME280;3021;51.000;6.980;2023-04-24T03:55:25;67436.94;;;10.23;100.00
5988;BME280;3021;51.000;6.980;2023-04-24T03:57:50;67424.09;;;10.09;100.00
5988;BME280;3021;51.000;6.980;2023-04-24T04:00:16;67443.56;;;10.24;100.00
5988;BME280;3021;51.000;6.980;2023-04-24T04:02:41;67448.50;;;10.33;100.00
5988;BME280;3021;51.000;6.980;2023-04-24T04:05:07;67465.00;;;10.43;100.00
5988;BME280;3021;51.000;6.980;2023-04-24T04:07:33;67468.00;;;10.48;100.00
5988;BME280;3021;51.000;6.980;2023-04-24T04:09:58;67471.34;;;10.49;100.00
5988;BME280;3021;51.000;6.980;2023-04-24T04:12:24;67470.34;;;10.50;100.00
5988;BME280;3021;51.000;6.980;2023-04-24T04:14:49;67460.50;;;10.42;100.00
5988;BME280;3021;51.000;6.980;2023-04-24T04:17:14;67462.81;;;10.44;100.00
5988;BME280;3021;51.000;6.980;2023-04-24T04:19:40;67470.34;;;10.50;100.00
5988;BME280;3021;51.000;6.980;2023-04-24T04:22:05;67472.06;;;10.52;100.00
5988;BME280;3021;51.000;6.980;2023-04-24T04:24:33;67461.50;;;10.40;100.00
5988;BME280;3021;51.000;6.980;2023-04-24T04:26:59;67468.72;;;10.51;100.00
5988;BME280;3021;51.000;6.980;2023-04-24T04:29:25;67468.59;;;10.49;100.00
5988;BME280;3021;51.000;6.980;2023-04-24T04:31:51;67470.34;;;10.50;100.00
5988;BME280;3021;51.000;6.980;2023-04-24T04:34:16;67469.59;;;10.47;100.00
5988;BME280;3021;51.000;6.980;2023-04-24T04:36:42;67465.13;;;10.46;100.00
5988;BME280;3021;51.000;6.980;2023-04-24T04:39:19;67472.06;;;10.52;100.00
5988;BME280;3021;51.000;6.980;2023-04-24T04:41:45;67466.28;;;10.47;100.00
5988;BME280;3021;51.000;6.980;2023-04-24T04:44:14;67462.25;;;10.43;100.00
5988;BME280;3021;51.000;6.980;2023-04-24T04:46:40;67457.88;;;10.34;100.00
5988;BME280;3021;51.000;6.980;2023-04-24T04:49:07;67461.66;;;10.43;100.00
5988;BME280;3021;51.000;6.980;2023-04-24T04:51:33;67472.47;;;10.50;100.00
5988;BME280;3021;51.000;6.980;2023-04-24T04:53:59;67470.19;;;10.48;100.00
5988;BME280;3021;51.000;6.980;2023-04-24T04:56:24;67465.25;;;10.48;100.00
5988;BME280;3021;51.000;6.980;2023-04-24T04:58:50;67478.41;;;10.58;100.00
5988;BME280;3021;51.000;6.980;2023-04-24T05:01:16;67474.38;;;10.54;100.00
5988;BME280;3021;51.000;6.980;2023-04-24T05:03:42;67470.91;;;10.51;100.00
5988;BME280;3021;51.000;6.980;2023-04-24T05:06:07;67474.22;;;10.51;100.00
5988;BME280;3021;51.000;6.980;2023-04-24T05:08:33;67476.09;;;10.55;100.00
5988;BME280;3021;51.000;6.980;2023-04-24T05:10:58;67478.41;;;10.58;100.00
5988;BME280;3021;51.000;6.980;2023-04-24T05:13:23;67476.09;;;10.55;100.00
5988;BME280;3021;51.000;6.980;2023-04-24T05:15:49;67485.91;;;10.64;100.00
5988;BME280;3021;51.000;6.980;2023-04-24T05:18:15;67491.13;;;10.69;100.00
5988;BME280;3021;51.000;6.980;2023-04-24T05:20:40;67494.00;;;10.71;100.00
5988;BME280;3021;51.000;6.980;2023-04-24T05:23:08;67485.91;;;10.64;100.00
5988;BME280;3021;51.000;6.980;2023-04-24T05:25:33;67489.41;;;10.67;100.00
5988;BME280;3021;51.000;6.980;2023-04-24T05:28:00;67487.09;;;10.65;100.00
5988;BME280;3021;51.000;6.980;2023-04-24T05:30:25;67494.59;;;10.72;100.00
5988;BME280;3021;51.000;6.980;2023-04-24T05:32:51;67487.81;;;10.68;100.00
5988;BME280;3021;51.000;6.980;2023-04-24T05:35:16;67477.97;;;10.60;100.00
5988;BME280;3021;51.000;6.980;2023-04-24T05:37:42;67453.00;;;10.35;100.00
5988;BME280;3021;51.000;6.980;2023-04-24T05:40:07;67423.94;;;10.07;100.00
5988;BME280;3021;51.000;6.980;2023-04-24T05:42:34;67402.13;;;9.90;100.00
5988;BME280;3021;51.000;6.980;2023-04-24T05:44:59;67387.84;;;9.79;100.00
5988;BME280;3021;51.000;6.980;2023-04-24T05:47:24;67361.56;;;9.51;100.00
5988;BME280;3021;51.000;6.980;2023-04-24T05:49:51;67343.81;;;9.38;100.00
5988;BME280;3021;51.000;6.980;2023-04-24T05:52:16;67340.38;;;9.34;100.00
5988;BME280;3021;51.000;6.980;2023-04-24T05:54:42;67337.16;;;9.27;100.00
5988;BME280;3021;51.000;6.980;2023-04-24T05:57:07;67331.13;;;9.26;100.00
5988;BME280;3021;51.000;6.980;2023-04-24T05:59:37;67328.22;;;9.24;100.00
5988;BME280;3021;51.000;6.980;2023-04-24T06:02:03;67320.88;;;9.20;100.00
5988;BME280;3021;51.000;6.980;2023-04-24T06:04:29;67324.19;;;9.20;100.00
5988;BME280;3021;51.000;6.980;2023-04-24T06:06:54;67333.44;;;9.28;100.00
5988;BME280;3021;51.000;6.980;2023-04-24T06:09:24;67337.88;;;9.30;100.00
5988;BME280;3021;51.000;6.980;2023-04-24T06:11:50;67346.13;;;9.40;100.00
5988;BME280;3021;51.000;6.980;2023-04-24T06:14:25;67346.13;;;9.40;100.00
5988;BME280;3021;51.000;6.980;2023-04-24T06:16:50;67342.50;;;9.34;100.00
5988;BME280;3021;51.000;6.980;2023-04-24T06:19:16;67342.66;;;9.37;100.00
5988;BME280;3021;51.000;6.980;2023-04-24T06:21:41;67331.53;;;9.24;100.00
5988;BME280;3021;51.000;6.980;2023-04-24T06:24:06;67320.16;;;9.16;100.00
5988;BME280;3021;51.000;6.980;2023-04-24T06:26:32;67307.47;;;9.05;100.00
5988;BME280;3021;51.000;6.980;2023-04-24T06:28:57;67307.31;;;9.03;100.00
5988;BME280;3021;51.000;6.980;2023-04-24T06:31:24;67314.38;;;9.11;100.00
5988;BME280;3021;51.000;6.980;2023-04-24T06:33:49;67306.28;;;9.04;100.00
5988;BME280;3021;51.000;6.980;2023-04-24T06:36:15;67298.81;;;8.97;100.00
5988;BME280;3021;51.000;6.980;2023-04-24T06:38:41;67301.69;;;9.00;100.00
5988;BME280;3021;51.000;6.980;2023-04-24T06:41:06;67303.28;;;8.99;100.00
5988;BME280;3021;51.000;6.980;2023-04-24T06:43:32;67296.50;;;8.95;100.00
5988;BME280;3021;51.000;6.980;2023-04-24T06:45:57;67282.66;;;8.83;100.00
5988;BME280;3021;51.000;6.980;2023-04-24T06:48:24;67291.88;;;8.91;100.00
5988;BME280;3021;51.000;6.980;2023-04-24T06:50:50;67301.09;;;8.99;100.00
5988;BME280;3021;51.000;6.980;2023-04-24T06:53:15;67296.34;;;8.93;100.00
5988;BME280;3021;51.000;6.980;2023-04-24T06:55:41;67294.19;;;8.93;100.00
5988;BME280;3021;51.000;6.980;2023-04-24T06:58:08;67293.59;;;8.93;100.00
5988;BME280;3021;51.000;6.980;2023-04-24T07:00:33;67299.94;;;8.98;100.00
5988;BME280;3021;51.000;6.980;2023-04-24T07:02:59;67308.63;;;9.06;100.00
5988;BME280;3021;51.000;6.980;2023-04-24T07:05:24;67294.19;;;8.93;100.00
5988;BME280;3021;51.000;6.980;2023-04-24T07:07:50;67276.88;;;8.78;100.00
5988;BME280;3021;51.000;6.980;2023-04-24T07:10:16;67259.28;;;8.67;100.00
5988;BME280;3021;51.000;6.980;2023-04-24T07:12:41;67264.75;;;8.67;100.00
5988;BME280;3021;51.000;6.980;2023-04-24T07:15:07;67272.81;;;8.74;100.00
5988;BME280;3021;51.000;6.980;2023-04-24T07:17:33;67274.44;;;8.73;100.00
5988;BME280;3021;51.000;6.980;2023-04-24T07:19:59;67276.88;;;8.78;100.00
5988;BME280;3021;51.000;6.980;2023-04-24T07:22:25;67274.00;;;8.75;100.00
5988;BME280;3021;51.000;6.980;2023-04-24T07:24:50;67277.59;;;8.81;100.00
5988;BME280;3021;51.000;6.980;2023-04-24T07:27:16;67297.06;;;8.96;100.00
5988;BME280;3021;51.000;6.980;2023-04-24T07:29:41;67295.31;;;8.94;100.00
5988;BME280;3021;51.000;6.980;2023-04-24T07:32:07;67295.31;;;8.94;100.00
5988;BME280;3021;51.000;6.980;2023-04-24T07:34:33;67287.25;;;8.87;100.00
5988;BME280;3021;51.000;6.980;2023-04-24T07:36:58;67271.09;;;8.73;100.00
5988;BME280;3021;51.000;6.980;2023-04-24T07:39:24;67267.06;;;8.69;100.00
5988;BME280;3021;51.000;6.980;2023-04-24T07:41:49;67271.69;;;8.73;100.00
5988;BME280;3021;51.000;6.980;2023-04-24T07:44:14;67247.47;;;8.52;100.00
5988;BME280;3021;51.000;6.980;2023-04-24T07:46:40;67241.13;;;8.46;100.00
5988;BME280;3021;51.000;6.980;2023-04-24T07:49:05;67246.31;;;8.51;100.00
5988;BME280;3021;51.000;6.980;2023-04-24T07:51:31;67250.91;;;8.55;100.00
5988;BME280;3021;51.000;6.980;2023-04-24T07:53:58;67246.72;;;8.48;100.00
5988;BME280;3021;51.000;6.980;2023-04-24T07:56:23;67238.22;;;8.43;100.00
5988;BME280;3021;51.000;6.980;2023-04-24T07:58:49;67231.84;;;8.38;100.00
5988;BME280;3021;51.000;6.980;2023-04-24T08:01:14;67222.06;;;8.29;100.00
5988;BME280;3021;51.000;6.980;2023-04-24T08:03:40;67209.94;;;8.18;100.00
5988;BME280;3021;51.000;6.980;2023-04-24T08:06:09;67193.78;;;8.04;100.00
5988;BME280;3021;51.000;6.980;2023-04-24T08:08:34;67186.88;;;7.98;100.00
5988;BME280;3021;51.000;6.980;2023-04-24T08:11:00;67166.53;;;7.77;100.00
5988;BME280;3021;51.000;6.980;2023-04-24T08:13:25;67174.03;;;7.84;100.00
5988;BME280;3021;51.000;6.980;2023-04-24T08:15:51;67172.72;;;7.80;100.00
5988;BME280;3021;51.000;6.980;2023-04-24T08:18:16;67179.38;;;7.91;100.00
5988;BME280;3021;51.000;6.980;2023-04-24T08:20:41;67163.09;;;7.74;100.00
5988;BME280;3021;51.000;6.980;2023-04-24T08:23:07;67160.34;;;7.74;100.00
5988;BME280;3021;51.000;6.980;2023-04-24T08:25:32;67154.44;;;7.66;100.00
5988;BME280;3021;51.000;6.980;2023-04-24T08:28:00;67134.25;;;7.48;100.00
5988;BME280;3021;51.000;6.980;2023-04-24T08:30:25;67120.59;;;7.38;100.00
5988;BME280;3021;51.000;6.980;2023-04-24T08:32:50;67134.41;;;7.51;100.00
5988;BME280;3021;51.000;6.980;2023-04-24T08:35:16;67125.19;;;7.42;100.00
5988;BME280;3021;51.000;6.980;2023-04-24T08:37:41;67136.16;;;7.52;100.00
5988;BME280;3021;51.000;6.980;2023-04-24T08:40:13;67157.91;;;7.69;100.00
5988;BME280;3021;51.000;6.980;2023-04-24T08:42:41;67154.44;;;7.66;100.00
5988;BME280;3021;51.000;6.980;2023-04-24T08:45:08;67167.84;;;7.81;100.00
5988;BME280;3021;51.000;6.980;2023-04-24T08:47:35;67163.09;;;7.74;100.00
5988;BME280;3021;51.000;6.980;2023-04-24T08:50:02;67138.72;;;7.50;100.00
5988;BME280;3021;51.000;6.980;2023-04-24T08:52:28;67136.59;;;7.50;100.00
5988;BME280;3021;51.000;6.980;2023-04-24T08:54:53;67144.06;;;7.57;100.00
5988;BME280;3021;51.000;6.980;2023-04-24T08:57:19;67136.16;;;7.52;100.00
5988;BME280;3021;51.000;6.980;2023-04-24T08:59:45;67132.84;;;7.52;100.00
5988;BME280;3021;51.000;6.980;2023-04-24T09:02:12;67149.84;;;7.62;100.00
5988;BME280;3021;51.000;6.980;2023-04-24T09:04:40;67139.03;;;7.55;100.00
5988;BME280;3021;51.000;6.980;2023-04-24T09:07:06;67160.19;;;7.71;100.00
5988;BME280;3021;51.000;6.980;2023-04-24T09:09:34;67155.00;;;7.67;100.00
5988;BME280;3021;51.000;6.980;2023-04-24T09:12:00;67147.66;;;7.63;100.00
5988;BME280;3021;51.000;6.980;2023-04-24T09:14:26;67153.13;;;7.63;100.00
5988;BME280;3021;51.000;6.980;2023-04-24T09:16:51;67163.25;;;7.76;100.00
5988;BME280;3021;51.000;6.980;2023-04-24T09:19:16;67162.50;;;7.73;100.00
5988;BME280;3021;51.000;6.980;2023-04-24T09:21:45;67167.69;;;7.78;100.00
5988;BME280;3021;51.000;6.980;2023-04-24T09:24:19;67171.88;;;7.84;100.00
5988;BME280;3021;51.000;6.980;2023-04-24T09:26:48;67164.25;;;7.75;100.00
5988;BME280;3021;51.000;6.980;2023-04-24T09:29:15;67178.22;;;7.90;100.00
5988;BME280;3021;51.000;6.980;2023-04-24T09:31:42;67188.44;;;7.96;100.00
5988;BME280;3021;51.000;6.980;2023-04-24T09:34:07;67205.75;;;8.12;100.00
5988;BME280;3021;51.000;6.980;2023-04-24T09:36:40;67205.75;;;8.12;100.00
5988;BME280;3021;51.000;6.980;2023-04-24T09:39:08;67201.13;;;8.08;100.00
5988;BME280;3021;51.000;6.980;2023-04-24T09:41:44;67207.63;;;8.16;100.00
5988;BME280;3021;51.000;6.980;2023-04-24T09:44:17;67205.31;;;8.14;100.00
5988;BME280;3021;51.000;6.980;2023-04-24T09:46:45;67232.28;;;8.36;100.00
5988;BME280;3021;51.000;6.980;2023-04-24T09:49:13;67246.31;;;8.51;100.00
5988;BME280;3021;51.000;6.980;2023-04-24T09:51:39;67246.16;;;8.48;100.00
5988;BME280;3021;51.000;6.980;2023-04-24T09:54:13;67267.63;;;8.70;100.00
5988;BME280;3021;51.000;6.980;2023-04-24T09:56:42;67293.03;;;8.92;100.00
5988;BME280;3021;51.000;6.980;2023-04-24T09:59:09;67301.09;;;8.99;100.00
5988;BME280;3021;51.000;6.980;2023-04-24T10:01:34;67306.44;;;9.07;100.00
5988;BME280;3021;51.000;6.980;2023-04-24T10:04:01;67338.03;;;9.32;100.00
5988;BME280;3021;51.000;6.980;2023-04-24T10:06:32;67333.56;;;9.31;100.00
5988;BME280;3021;51.000;6.980;2023-04-24T10:08:58;67367.47;;;9.59;100.00
5988;BME280;3021;51.000;6.980;2023-04-24T10:11:26;67351.31;;;9.44;100.00
5988;BME280;3021;51.000;6.980;2023-04-24T10:13:52;67366.50;;;9.60;100.00
5988;BME280;3021;51.000;6.980;2023-04-24T10:16:20;67406.03;;;9.91;100.00
5988;BME280;3021;51.000;6.980;2023-04-24T10:18:48;67388.84;;;9.78;100.00
5988;BME280;3021;51.000;6.980;2023-04-24T10:21:15;67385.97;;;9.75;100.00
5988;BME280;3021;51.000;6.980;2023-04-24T10:23:41;67443.72;;;10.27;100.00
5988;BME280;3021;51.000;6.980;2023-04-24T10:26:09;67453.38;;;10.33;100.00
5988;BME280;3021;51.000;6.980;2023-04-24T10:28:36;67489.41;;;10.67;100.00
5988;BME280;3021;51.000;6.980;2023-04-24T10:31:02;67480.16;;;10.59;100.00
5988;BME280;3021;51.000;6.980;2023-04-24T10:33:28;67488.81;;;10.67;100.00
5988;BME280;3021;51.000;6.980;2023-04-24T10:35:55;67547.78;;;11.19;100.00
5988;BME280;3021;51.000;6.980;2023-04-24T10:38:25;67533.47;;;11.09;100.00
5988;BME280;3021;51.000;6.980;2023-04-24T10:41:19;67480.88;;;10.62;100.00
5988;BME280;3021;51.000;6.980;2023-04-24T10:43:48;67458.75;;;10.40;100.00
5988;BME280;3021;51.000;6.980;2023-04-24T10:46:22;67436.22;;;10.20;100.00
5988;BME280;3021;51.000;6.980;2023-04-24T10:48:54;67447.19;;;10.30;100.00
5988;BME280;3021;51.000;6.980;2023-04-24T10:51:23;67430.44;;;10.15;100.00
5988;BME280;3021;51.000;6.980;2023-04-24T10:53:50;67431.44;;;10.13;100.00
5988;BME280;3021;51.000;6.980;2023-04-24T10:56:16;67426.97;;;10.12;100.00
5988;BME280;3021;51.000;6.980;2023-04-24T10:58:51;67390.44;;;9.77;100.00
5988;BME280;3021;51.000;6.980;2023-04-24T11:01:25;67390.75;;;9.82;100.00
5988;BME280;3021;51.000;6.980;2023-04-24T11:03:56;67374.28;;;9.62;100.00
5988;BME280;3021;51.000;6.980;2023-04-24T11:06:37;67338.19;;;9.35;100.00
5988;BME280;3021;51.000;6.980;2023-04-24T11:09:06;67311.06;;;9.11;100.00
5988;BME280;3021;51.000;6.980;2023-04-24T11:11:33;67322.44;;;9.19;100.00
5988;BME280;3021;51.000;6.980;2023-04-24T11:19:06;67337.63;;;9.34;100.00
5988;BME280;3021;51.000;6.980;2023-04-24T11:21:41;67353.63;;;9.46;100.00
5988;BME280;3021;51.000;6.980;2023-04-24T11:26:59;67462.81;;;10.44;100.00
5988;BME280;3021;51.000;6.980;2023-04-24T11:29:39;67557.75;;;11.31;100.00
5988;BME280;3021;51.000;6.980;2023-04-24T11:35:00;67688.06;;;12.49;100.00
5988;BME280;3021;51.000;6.980;2023-04-24T11:37:28;67689.09;;;12.48;100.00
5988;BME280;3021;51.000;6.980;2023-04-24T11:39:55;67679.69;;;12.37;100.00
5988;BME280;3021;51.000;6.980;2023-04-24T11:42:21;67715.56;;;12.69;100.00
5988;BME280;3021;51.000;6.980;2023-04-24T11:44:49;67698.78;;;12.54;100.00
5988;BME280;3021;51.000;6.980;2023-04-24T11:47:14;67661.19;;;12.20;100.00
5988;BME280;3021;51.000;6.980;2023-04-24T11:49:40;67641.06;;;12.05;100.00
5988;BME280;3021;51.000;6.980;2023-04-24T11:52:05;67583.19;;;11.53;100.00
5988;BME280;3021;51.000;6.980;2023-04-24T11:54:31;67578.56;;;11.49;100.00
5988;BME280;3021;51.000;6.980;2023-04-24T11:56:57;67596.50;;;11.65;100.00
5988;BME280;3021;51.000;6.980;2023-04-24T11:59:23;67661.91;;;12.23;100.00
5988;BME280;3021;51.000;6.980;2023-04-24T12:01:49;67706.44;;;12.63;100.00
5988;BME280;3021;51.000;6.980;2023-04-24T12:04:16;67754.38;;;13.03;100.00
5988;BME280;3021;51.000;6.980;2023-04-24T12:07:03;67793.31;;;13.40;100.00
5988;BME280;3021;51.000;6.980;2023-04-24T12:09:44;67817.66;;;13.62;100.00
5988;BME280;3021;51.000;6.980;2023-04-24T12:12:11;67772.31;;;13.19;100.00
5988;BME280;3021;51.000;6.980;2023-04-24T12:14:52;67735.84;;;12.87;100.00
5988;BME280;3021;51.000;6.980;2023-04-24T12:17:17;67670.41;;;12.28;100.00
5988;BME280;3021;51.000;6.980;2023-04-24T12:19:48;67639.91;;;12.04;100.00
5988;BME280;3021;51.000;6.980;2023-04-24T12:22:14;67604.59;;;11.72;100.00
5988;BME280;3021;51.000;6.980;2023-04-24T12:24:56;67605.03;;;11.70;100.00
5988;BME280;3021;51.000;6.980;2023-04-24T12:27:22;67582.03;;;11.52;100.00
5988;BME280;3021;51.000;6.980;2023-04-24T12:29:57;67617.75;;;11.82;100.00
5988;BME280;3021;51.000;6.980;2023-04-24T12:32:23;67674.63;;;12.35;100.00
5988;BME280;3021;51.000;6.980;2023-04-24T12:34:50;67730.19;;;12.84;100.00
5988;BME280;3021;51.000;6.980;2023-04-24T12:37:17;67708.63;;;12.62;100.00
5988;BME280;3021;51.000;6.980;2023-04-24T12:40:08;67690.25;;;12.49;100.00
5988;BME280;3021;51.000;6.980;2023-04-24T12:42:35;67758.97;;;13.07;100.00
5988;BME280;3021;51.000;6.980;2023-04-24T12:45:06;67890.53;;;14.24;100.00
5988;BME280;3021;51.000;6.980;2023-04-24T12:47:32;67875.47;;;14.11;100.00
5988;BME280;3021;51.000;6.980;2023-04-24T12:49:58;67831.41;;;13.72;100.00
5988;BME280;3021;51.000;6.980;2023-04-24T12:52:29;67871.41;;;14.07;100.00
5988;BME280;3021;51.000;6.980;2023-04-24T12:54:56;67863.44;;;14.03;100.00
5988;BME280;3021;51.000;6.980;2023-04-24T12:57:27;67874.44;;;14.12;100.00
5988;BME280;3021;51.000;6.980;2023-04-24T12:59:54;67868.63;;;14.07;100.00
5988;BME280;3021;51.000;6.980;2023-04-24T13:02:21;67865.75;;;14.05;100.00
5988;BME280;3021;51.000;6.980;2023-04-24T13:04:47;67919.66;;;14.52;100.00
5988;BME280;3021;51.000;6.980;2023-04-24T13:07:13;67858.22;;;13.98;100.00
5988;BME280;3021;51.000;6.980;2023-04-24T13:09:40;67880.66;;;14.15;100.00
5988;BME280;3021;51.000;6.980;2023-04-24T13:12:06;67888.34;;;14.25;100.00
5988;BME280;3021;51.000;6.980;2023-04-24T13:14:32;68019.28;;;15.38;100.00
5988;BME280;3021;51.000;6.980;2023-04-24T13:16:57;67920.81;;;14.54;100.00
5988;BME280;3021;51.000;6.980;2023-04-24T13:19:26;67880.66;;;14.15;100.00
5988;BME280;3021;51.000;6.980;2023-04-24T13:21:56;67885.31;;;14.20;100.00
5988;BME280;3021;51.000;6.980;2023-04-24T13:24:24;67881.97;;;14.19;100.00